sensor_id;sensor_type;location;lat;lon;timestamp;temperature;humidity
36818;DHT22;22761;51.542;16.450;2022-09-29T15:47:24;15.15;66.68
36818;DHT22;22761;51.542;16.450;2022-09-29T15:49:51;15.31;67.29
36818;DHT22;22761;51.542;16.450;2022-09-29T15:52:19;15.60;67.32
36818;DHT22;22761;51.542;16.450;2022-09-29T15:54:55;15.85;66.65
36818;DHT22;22761;51.542;16.450;2022-09-29T15:57:45;16.02;65.37
36818;DHT22;22761;51.542;16.450;2022-09-29T16:00:42;16.14;64.96
36818;DHT22;22761;51.542;16.450;2022-09-29T16:03:24;16.21;64.58
36818;DHT22;22761;51.542;16.450;2022-09-29T16:06:20;16.22;64.10
36818;DHT22;22761;51.542;16.450;2022-09-29T16:08:47;16.02;64.10
36818;DHT22;22761;51.542;16.450;2022-09-29T16:11:26;15.81;64.06
36818;DHT22;22761;51.542;16.450;2022-09-29T16:14:06;15.57;64.42
36818;DHT22;22761;51.542;16.450;2022-09-29T16:16:36;15.35;64.79
36818;DHT22;22761;51.542;16.450;2022-09-29T16:19:17;15.15;65.20
36818;DHT22;22761;51.542;16.450;2022-09-29T16:21:41;15.03;65.41
36818;DHT22;22761;51.542;16.450;2022-09-29T16:24:15;14.83;65.29
36818;DHT22;22761;51.542;16.450;2022-09-29T16:26:50;14.62;65.50
36818;DHT22;22761;51.542;16.450;2022-09-29T16:31:54;14.24;65.87
36818;DHT22;22761;51.542;16.450;2022-09-29T16:34:26;14.05;66.54
36818;DHT22;22761;51.542;16.450;2022-09-29T16:37:05;13.89;66.88
36818;DHT22;22761;51.542;16.450;2022-09-29T16:39:42;13.76;67.12
36818;DHT22;22761;51.542;16.450;2022-09-29T16:42:21;13.58;67.48
36818;DHT22;22761;51.542;16.450;2022-09-29T16:44:49;13.43;67.88
36818;DHT22;22761;51.542;16.450;2022-09-29T16:47:24;13.32;67.99
36818;DHT22;22761;51.542;16.450;2022-09-29T16:49:59;13.17;68.36
36818;DHT22;22761;51.542;16.450;2022-09-29T16:52:46;13.07;68.62
36818;DHT22;22761;51.542;16.450;2022-09-29T16:55:26;12.95;68.71
36818;DHT22;22761;51.542;16.450;2022-09-29T17:00:35;12.68;68.80
36818;DHT22;22761;51.542;16.450;2022-09-29T17:03:02;12.56;69.20
36818;DHT22;22761;51.542;16.450;2022-09-29T17:05:40;12.42;69.47
36818;DHT22;22761;51.542;16.450;2022-09-29T17:08:24;12.27;70.03
36818;DHT22;22761;51.542;16.450;2022-09-29T17:10:55;12.17;69.93
36818;DHT22;22761;51.542;16.450;2022-09-29T17:13:23;12.10;70.18
36818;DHT22;22761;51.542;16.450;2022-09-29T17:15:51;12.03;70.07
36818;DHT22;22761;51.542;16.450;2022-09-29T17:18:20;11.94;70.00
36818;DHT22;22761;51.542;16.450;2022-09-29T17:20:48;11.85;70.23
36818;DHT22;22761;51.542;16.450;2022-09-29T17:23:16;11.78;70.50
36818;DHT22;22761;51.542;16.450;2022-09-29T17:25:45;11.71;70.61
36818;DHT22;22761;51.542;16.450;2022-09-29T17:28:21;11.64;70.72
36818;DHT22;22761;51.542;16.450;2022-09-29T17:30:47;11.57;70.92
36818;DHT22;22761;51.542;16.450;2022-09-29T17:33:16;11.50;70.74
36818;DHT22;22761;51.542;16.450;2022-09-29T17:35:49;11.38;70.91
36818;DHT22;22761;51.542;16.450;2022-09-29T17:38:18;11.33;70.75
36818;DHT22;22761;51.542;16.450;2022-09-29T17:41:04;11.26;71.14
36818;DHT22;22761;51.542;16.450;2022-09-29T17:43:32;11.18;71.23
36818;DHT22;22761;51.542;16.450;2022-09-29T17:46:00;11.13;71.28
36818;DHT22;22761;51.542;16.450;2022-09-29T17:48:28;11.07;71.53
36818;DHT22;22761;51.542;16.450;2022-09-29T17:50:56;10.96;71.32
36818;DHT22;22761;51.542;16.450;2022-09-29T17:53:25;10.64;71.35
36818;DHT22;22761;51.542;16.450;2022-09-29T17:55:56;10.33;71.95
36818;DHT22;22761;51.542;16.450;2022-09-29T17:58:23;10.03;72.54
36818;DHT22;22761;51.542;16.450;2022-09-29T18:00:53;9.76;73.28
36818;DHT22;22761;51.542;16.450;2022-09-29T18:03:21;9.57;73.73
36818;DHT22;22761;51.542;16.450;2022-09-29T18:05:53;9.36;74.38
36818;DHT22;22761;51.542;16.450;2022-09-29T18:08:27;9.17;75.01
36818;DHT22;22761;51.542;16.450;2022-09-29T18:10:57;9.00;75.58
36818;DHT22;22761;51.542;16.450;2022-09-29T18:13:28;8.85;75.95
36818;DHT22;22761;51.542;16.450;2022-09-29T18:15:59;8.68;76.37
36818;DHT22;22761;51.542;16.450;2022-09-29T18:18:27;8.51;76.91
36818;DHT22;22761;51.542;16.450;2022-09-29T18:20:54;8.41;77.38
36818;DHT22;22761;51.542;16.450;2022-09-29T18:23:22;8.30;77.95
36818;DHT22;22761;51.542;16.450;2022-09-29T18:25:51;8.16;78.30
36818;DHT22;22761;51.542;16.450;2022-09-29T18:28:19;8.09;78.71
36818;DHT22;22761;51.542;16.450;2022-09-29T18:31:34;8.02;79.07
36818;DHT22;22761;51.542;16.450;2022-09-29T18:33:19;7.92;79.44
36818;DHT22;22761;51.542;16.450;2022-09-29T18:35:54;7.82;79.76
36818;DHT22;22761;51.542;16.450;2022-09-29T18:38:22;7.76;79.87
36818;DHT22;22761;51.542;16.450;2022-09-29T18:40:54;7.70;79.96
36818;DHT22;22761;51.542;16.450;2022-09-29T18:43:23;7.64;80.03
36818;DHT22;22761;51.542;16.450;2022-09-29T18:45:53;7.60;80.34
36818;DHT22;22761;51.542;16.450;2022-09-29T18:48:21;7.51;80.77
36818;DHT22;22761;51.542;16.450;2022-09-29T18:50:51;7.46;81.01
36818;DHT22;22761;51.542;16.450;2022-09-29T18:53:20;7.39;79.91
36818;DHT22;22761;51.542;16.450;2022-09-29T18:55:47;7.39;81.00
36818;DHT22;22761;51.542;16.450;2022-09-29T18:58:18;7.35;81.40
36818;DHT22;22761;51.542;16.450;2022-09-29T19:00:49;7.33;81.71
36818;DHT22;22761;51.542;16.450;2022-09-29T19:03:21;7.26;81.90
36818;DHT22;22761;51.542;16.450;2022-09-29T19:05:49;7.25;81.00
36818;DHT22;22761;51.542;16.450;2022-09-29T19:08:17;7.23;81.70
36818;DHT22;22761;51.542;16.450;2022-09-29T19:10:54;7.19;82.29
36818;DHT22;22761;51.542;16.450;2022-09-29T19:13:23;7.15;82.55
36818;DHT22;22761;51.542;16.450;2022-09-29T19:15:56;7.16;82.63
36818;DHT22;22761;51.542;16.450;2022-09-29T19:18:26;7.12;82.79
36818;DHT22;22761;51.542;16.450;2022-09-29T19:20:56;7.09;82.95
36818;DHT22;22761;51.542;16.450;2022-09-29T19:23:26;7.09;83.10
36818;DHT22;22761;51.542;16.450;2022-09-29T19:25:54;7.07;83.06
36818;DHT22;22761;51.542;16.450;2022-09-29T19:28:24;7.05;83.04
36818;DHT22;22761;51.542;16.450;2022-09-29T19:30:54;7.01;83.20
36818;DHT22;22761;51.542;16.450;2022-09-29T19:33:22;6.98;83.21
36818;DHT22;22761;51.542;16.450;2022-09-29T19:35:53;6.97;83.36
36818;DHT22;22761;51.542;16.450;2022-09-29T19:38:21;6.91;83.32
36818;DHT22;22761;51.542;16.450;2022-09-29T19:40:49;6.90;83.57
36818;DHT22;22761;51.542;16.450;2022-09-29T19:43:17;6.87;83.66
36818;DHT22;22761;51.542;16.450;2022-09-29T19:45:46;6.86;83.64
36818;DHT22;22761;51.542;16.450;2022-09-29T19:48:21;6.81;83.72
36818;DHT22;22761;51.542;16.450;2022-09-29T19:50:56;6.81;83.83
36818;DHT22;22761;51.542;16.450;2022-09-29T19:53:43;6.79;83.75
36818;DHT22;22761;51.542;16.450;2022-09-29T19:56:11;6.74;83.96
36818;DHT22;22761;51.542;16.450;2022-09-29T19:58:39;6.73;84.20
36818;DHT22;22761;51.542;16.450;2022-09-29T20:01:09;6.77;84.38
36818;DHT22;22761;51.542;16.450;2022-09-29T20:03:36;6.73;84.05
36818;DHT22;22761;51.542;16.450;2022-09-29T20:06:04;6.69;83.94
36818;DHT22;22761;51.542;16.450;2022-09-29T20:08:33;6.64;83.88
36818;DHT22;22761;51.542;16.450;2022-09-29T20:11:09;6.59;83.87
36818;DHT22;22761;51.542;16.450;2022-09-29T20:13:38;6.56;83.90
36818;DHT22;22761;51.542;16.450;2022-09-29T20:16:05;6.56;84.07
36818;DHT22;22761;51.542;16.450;2022-09-29T20:18:34;6.53;83.99
36818;DHT22;22761;51.542;16.450;2022-09-29T20:21:08;6.49;84.06
36818;DHT22;22761;51.542;16.450;2022-09-29T20:23:36;6.47;84.02
36818;DHT22;22761;51.542;16.450;2022-09-29T20:26:06;6.43;84.10
36818;DHT22;22761;51.542;16.450;2022-09-29T20:28:37;6.43;84.23
36818;DHT22;22761;51.542;16.450;2022-09-29T20:31:06;6.43;84.27
36818;DHT22;22761;51.542;16.450;2022-09-29T20:33:35;6.38;84.24
36818;DHT22;22761;51.542;16.450;2022-09-29T20:36:05;6.35;84.32
36818;DHT22;22761;51.542;16.450;2022-09-29T20:38:40;6.31;84.33
36818;DHT22;22761;51.542;16.450;2022-09-29T20:41:07;6.28;84.36
36818;DHT22;22761;51.542;16.450;2022-09-29T20:43:35;6.28;84.48
36818;DHT22;22761;51.542;16.450;2022-09-29T20:46:07;6.26;84.50
36818;DHT22;22761;51.542;16.450;2022-09-29T20:48:36;6.24;84.58
36818;DHT22;22761;51.542;16.450;2022-09-29T20:51:08;6.22;84.54
36818;DHT22;22761;51.542;16.450;2022-09-29T20:53:37;6.18;84.68
36818;DHT22;22761;51.542;16.450;2022-09-29T20:56:12;6.18;84.78
36818;DHT22;22761;51.542;16.450;2022-09-29T20:58:39;6.17;84.72
36818;DHT22;22761;51.542;16.450;2022-09-29T21:04:03;6.17;84.98
36818;DHT22;22761;51.542;16.450;2022-09-29T21:06:32;6.19;85.01
36818;DHT22;22761;51.542;16.450;2022-09-29T21:09:02;6.21;84.89
36818;DHT22;22761;51.542;16.450;2022-09-29T21:11:30;6.24;84.80
36818;DHT22;22761;51.542;16.450;2022-09-29T21:13:58;6.24;84.84
36818;DHT22;22761;51.542;16.450;2022-09-29T21:16:25;6.24;84.73
36818;DHT22;22761;51.542;16.450;2022-09-29T21:18:53;6.26;84.70
36818;DHT22;22761;51.542;16.450;2022-09-29T21:21:20;6.28;85.12
36818;DHT22;22761;51.542;16.450;2022-09-29T21:23:48;6.36;85.44
36818;DHT22;22761;51.542;16.450;2022-09-29T21:26:19;6.40;84.84
36818;DHT22;22761;51.542;16.450;2022-09-29T21:28:54;6.36;84.50
36818;DHT22;22761;51.542;16.450;2022-09-29T21:31:30;6.35;84.43
36818;DHT22;22761;51.542;16.450;2022-09-29T21:34:01;6.31;84.28
36818;DHT22;22761;51.542;16.450;2022-09-29T21:36:32;6.33;84.16
36818;DHT22;22761;51.542;16.450;2022-09-29T21:38:59;6.28;84.02
36818;DHT22;22761;51.542;16.450;2022-09-29T21:41:30;6.31;84.06
36818;DHT22;22761;51.542;16.450;2022-09-29T21:44:07;6.26;83.99
36818;DHT22;22761;51.542;16.450;2022-09-29T21:46:39;6.26;83.92
36818;DHT22;22761;51.542;16.450;2022-09-29T21:49:08;6.21;83.77
36818;DHT22;22761;51.542;16.450;2022-09-29T21:51:42;6.21;83.93
36818;DHT22;22761;51.542;16.450;2022-09-29T21:54:20;6.21;83.99
36818;DHT22;22761;51.542;16.450;2022-09-29T21:56:49;6.18;83.76
36818;DHT22;22761;51.542;16.450;2022-09-29T21:59:18;6.18;83.68
36818;DHT22;22761;51.542;16.450;2022-09-29T22:01:46;6.12;83.57
36818;DHT22;22761;51.542;16.450;2022-09-29T22:04:14;6.08;83.54
36818;DHT22;22761;51.542;16.450;2022-09-29T22:06:43;6.01;83.53
36818;DHT22;22761;51.542;16.450;2022-09-29T22:09:17;5.97;83.65
36818;DHT22;22761;51.542;16.450;2022-09-29T22:11:45;5.97;83.92
36818;DHT22;22761;51.542;16.450;2022-09-29T22:14:15;5.98;83.95
36818;DHT22;22761;51.542;16.450;2022-09-29T22:16:43;5.98;83.99
36818;DHT22;22761;51.542;16.450;2022-09-29T22:19:11;6.00;84.07
36818;DHT22;22761;51.542;16.450;2022-09-29T22:21:39;5.98;84.15
36818;DHT22;22761;51.542;16.450;2022-09-29T22:24:06;5.98;84.09
36818;DHT22;22761;51.542;16.450;2022-09-29T22:26:35;6.01;84.08
36818;DHT22;22761;51.542;16.450;2022-09-29T22:29:02;6.01;84.23
36818;DHT22;22761;51.542;16.450;2022-09-29T22:31:30;6.00;84.27
36818;DHT22;22761;51.542;16.450;2022-09-29T22:34:02;6.02;84.22
36818;DHT22;22761;51.542;16.450;2022-09-29T22:36:33;6.01;84.31
36818;DHT22;22761;51.542;16.450;2022-09-29T22:39:03;6.04;84.32
36818;DHT22;22761;51.542;16.450;2022-09-29T22:41:30;6.04;84.28
36818;DHT22;22761;51.542;16.450;2022-09-29T22:43:59;6.05;84.30
36818;DHT22;22761;51.542;16.450;2022-09-29T22:46:28;6.05;84.57
36818;DHT22;22761;51.542;16.450;2022-09-29T22:48:56;6.10;84.54
36818;DHT22;22761;51.542;16.450;2022-09-29T22:51:23;6.10;84.84
36818;DHT22;22761;51.542;16.450;2022-09-29T22:53:50;6.14;85.11
36818;DHT22;22761;51.542;16.450;2022-09-29T22:56:21;6.17;85.17
36818;DHT22;22761;51.542;16.450;2022-09-29T22:58:50;6.18;85.19
36818;DHT22;22761;51.542;16.450;2022-09-29T23:01:17;6.17;84.99
36818;DHT22;22761;51.542;16.450;2022-09-29T23:03:47;6.14;84.62
36818;DHT22;22761;51.542;16.450;2022-09-29T23:06:15;6.08;84.69
36818;DHT22;22761;51.542;16.450;2022-09-29T23:08:42;6.10;84.83
36818;DHT22;22761;51.542;16.450;2022-09-29T23:11:18;6.04;84.81
36818;DHT22;22761;51.542;16.450;2022-09-29T23:13:46;6.02;84.85
36818;DHT22;22761;51.542;16.450;2022-09-29T23:16:14;6.01;84.96
36818;DHT22;22761;51.542;16.450;2022-09-29T23:18:45;6.00;85.23
36818;DHT22;22761;51.542;16.450;2022-09-29T23:21:16;6.00;85.34
36818;DHT22;22761;51.542;16.450;2022-09-29T23:23:58;5.96;85.40
36818;DHT22;22761;51.542;16.450;2022-09-29T23:26:28;5.96;85.44
36818;DHT22;22761;51.542;16.450;2022-09-29T23:28:56;5.94;85.56
36818;DHT22;22761;51.542;16.450;2022-09-29T23:31:23;5.93;85.75
36818;DHT22;22761;51.542;16.450;2022-09-29T23:33:53;5.91;85.50
36818;DHT22;22761;51.542;16.450;2022-09-29T23:36:22;5.87;85.27
36818;DHT22;22761;51.542;16.450;2022-09-29T23:38:49;5.84;85.19
36818;DHT22;22761;51.542;16.450;2022-09-29T23:41:31;5.82;85.24
36818;DHT22;22761;51.542;16.450;2022-09-29T23:44:01;5.80;85.34
36818;DHT22;22761;51.542;16.450;2022-09-29T23:46:32;5.79;85.47
36818;DHT22;22761;51.542;16.450;2022-09-29T23:49:02;5.76;85.38
36818;DHT22;22761;51.542;16.450;2022-09-29T23:51:32;5.76;85.21
36818;DHT22;22761;51.542;16.450;2022-09-29T23:53:59;5.70;85.16
36818;DHT22;22761;51.542;16.450;2022-09-29T23:56:27;5.72;85.16
36818;DHT22;22761;51.542;16.450;2022-09-29T23:58:55;5.66;85.20
